Schaupps, Nebraska
Current Conditions -  °F | °C
As of 12:53 AM on Friday 19 Dec 2014 (Local Time) from KGRI Reporting Station
Overcast Overcast  
Wind Chill: -6°   Ceiling: 1200
Heat Index: -2°   Visibility: 10mi
Dew Point: -4°   Wind: 7mph
Humidity: 85%   Direction: 230°SW
Pressure: 30.18"   Gusts: NA
Location:  41.3°N, 98.8143°W
Report Text: KGRI 190653Z AUTO 23006KT 10SM OVC012 M02/M04 A3018 RMK AO2 SLP247 T10171039
Loading
Personal Weather Stations






























Interactive Weather Map New forecast layout! Learn more

10-Day Weather Forecast

Advertisements
Track Severe Weather on mobile